sensor_id;sensor_type;location;lat;lon;timestamp;P1;durP1;ratioP1;P2;durP2;ratioP2
15624;SDS011;7912;51.376;6.126;2023-08-30T00:02:13;10.17;;;9.23;;
15624;SDS011;7912;51.376;6.126;2023-08-30T00:04:43;9.07;;;8.20;;
15624;SDS011;7912;51.376;6.126;2023-08-30T00:07:11;9.90;;;9.00;;
15624;SDS011;7912;51.376;6.126;2023-08-30T00:09:38;8.93;;;8.00;;
15624;SDS011;7912;51.376;6.126;2023-08-30T00:12:08;9.27;;;8.47;;
15624;SDS011;7912;51.376;6.126;2023-08-30T00:14:36;9.60;;;8.67;;
15624;SDS011;7912;51.376;6.126;2023-08-30T00:17:03;10.90;;;9.90;;
15624;SDS011;7912;51.376;6.126;2023-08-30T00:19:33;9.23;;;8.33;;
15624;SDS011;7912;51.376;6.126;2023-08-30T00:22:00;10.33;;;9.20;;
15624;SDS011;7912;51.376;6.126;2023-08-30T00:24:29;9.83;;;8.93;;
15624;SDS011;7912;51.376;6.126;2023-08-30T00:26:56;10.50;;;9.27;;
15624;SDS011;7912;51.376;6.126;2023-08-30T00:29:24;8.80;;;8.00;;
15624;SDS011;7912;51.376;6.126;2023-08-30T00:31:52;9.53;;;8.63;;
15624;SDS011;7912;51.376;6.126;2023-08-30T00:34:19;9.40;;;8.57;;
15624;SDS011;7912;51.376;6.126;2023-08-30T00:36:47;9.00;;;8.20;;
15624;SDS011;7912;51.376;6.126;2023-08-30T00:39:15;9.03;;;7.60;;
15624;SDS011;7912;51.376;6.126;2023-08-30T00:41:42;8.67;;;7.87;;
15624;SDS011;7912;51.376;6.126;2023-08-30T00:44:10;10.20;;;8.90;;
15624;SDS011;7912;51.376;6.126;2023-08-30T00:46:37;10.47;;;9.40;;
15624;SDS011;7912;51.376;6.126;2023-08-30T00:49:05;9.00;;;8.13;;
15624;SDS011;7912;51.376;6.126;2023-08-30T00:51:33;9.67;;;8.77;;
15624;SDS011;7912;51.376;6.126;2023-08-30T00:54:01;9.73;;;8.73;;
15624;SDS011;7912;51.376;6.126;2023-08-30T00:59:34;8.37;;;7.57;;
15624;SDS011;7912;51.376;6.126;2023-08-30T01:02:03;10.83;;;9.73;;
15624;SDS011;7912;51.376;6.126;2023-08-30T01:04:34;9.57;;;8.43;;
15624;SDS011;7912;51.376;6.126;2023-08-30T01:07:02;8.80;;;8.00;;
15624;SDS011;7912;51.376;6.126;2023-08-30T01:09:30;9.20;;;8.30;;
15624;SDS011;7912;51.376;6.126;2023-08-30T01:14:42;10.47;;;8.63;;
15624;SDS011;7912;51.376;6.126;2023-08-30T01:17:23;9.23;;;8.43;;
15624;SDS011;7912;51.376;6.126;2023-08-30T01:19:58;8.17;;;7.40;;
15624;SDS011;7912;51.376;6.126;2023-08-30T01:25:48;9.93;;;9.03;;
15624;SDS011;7912;51.376;6.126;2023-08-30T01:28:39;8.07;;;7.37;;
15624;SDS011;7912;51.376;6.126;2023-08-30T01:31:10;9.27;;;8.47;;
15624;SDS011;7912;51.376;6.126;2023-08-30T01:33:40;9.03;;;8.07;;
15624;SDS011;7912;51.376;6.126;2023-08-30T01:36:09;8.13;;;7.33;;
15624;SDS011;7912;51.376;6.126;2023-08-30T01:38:42;9.50;;;8.47;;
15624;SDS011;7912;51.376;6.126;2023-08-30T01:41:12;9.73;;;8.77;;
15624;SDS011;7912;51.376;6.126;2023-08-30T01:43:42;8.47;;;7.67;;
15624;SDS011;7912;51.376;6.126;2023-08-30T01:46:11;9.87;;;8.97;;
15624;SDS011;7912;51.376;6.126;2023-08-30T01:48:39;9.10;;;8.30;;
15624;SDS011;7912;51.376;6.126;2023-08-30T01:51:08;8.93;;;8.03;;
15624;SDS011;7912;51.376;6.126;2023-08-30T01:53:36;10.10;;;9.20;;
15624;SDS011;7912;51.376;6.126;2023-08-30T01:56:08;10.00;;;9.10;;
15624;SDS011;7912;51.376;6.126;2023-08-30T01:58:36;10.20;;;9.20;;
15624;SDS011;7912;51.376;6.126;2023-08-30T02:01:03;9.97;;;8.97;;
15624;SDS011;7912;51.376;6.126;2023-08-30T02:03:31;9.60;;;8.70;;
15624;SDS011;7912;51.376;6.126;2023-08-30T02:06:06;10.03;;;9.13;;
15624;SDS011;7912;51.376;6.126;2023-08-30T02:09:03;9.43;;;8.43;;
15624;SDS011;7912;51.376;6.126;2023-08-30T02:11:41;11.03;;;10.03;;
15624;SDS011;7912;51.376;6.126;2023-08-30T02:14:14;10.67;;;8.50;;
15624;SDS011;7912;51.376;6.126;2023-08-30T02:16:44;9.47;;;8.33;;
15624;SDS011;7912;51.376;6.126;2023-08-30T02:19:18;10.13;;;9.13;;
15624;SDS011;7912;51.376;6.126;2023-08-30T02:21:50;10.03;;;7.73;;
15624;SDS011;7912;51.376;6.126;2023-08-30T02:24:20;9.80;;;9.00;;
15624;SDS011;7912;51.376;6.126;2023-08-30T02:27:05;9.63;;;8.80;;
15624;SDS011;7912;51.376;6.126;2023-08-30T02:29:43;10.83;;;9.73;;
15624;SDS011;7912;51.376;6.126;2023-08-30T02:32:19;8.87;;;8.17;;
15624;SDS011;7912;51.376;6.126;2023-08-30T02:34:50;8.43;;;7.63;;
15624;SDS011;7912;51.376;6.126;2023-08-30T02:37:35;9.47;;;8.50;;
15624;SDS011;7912;51.376;6.126;2023-08-30T02:40:08;10.83;;;9.73;;
15624;SDS011;7912;51.376;6.126;2023-08-30T02:42:39;9.43;;;8.60;;
15624;SDS011;7912;51.376;6.126;2023-08-30T02:45:08;10.47;;;9.53;;
15624;SDS011;7912;51.376;6.126;2023-08-30T02:47:37;10.30;;;9.20;;
15624;SDS011;7912;51.376;6.126;2023-08-30T02:50:04;9.40;;;8.50;;
15624;SDS011;7912;51.376;6.126;2023-08-30T02:52:55;8.67;;;7.97;;
15624;SDS011;7912;51.376;6.126;2023-08-30T02:55:30;10.87;;;9.77;;
15624;SDS011;7912;51.376;6.126;2023-08-30T02:58:09;9.47;;;8.50;;
15624;SDS011;7912;51.376;6.126;2023-08-30T03:00:45;8.73;;;7.93;;
15624;SDS011;7912;51.376;6.126;2023-08-30T03:03:33;9.83;;;8.83;;
15624;SDS011;7912;51.376;6.126;2023-08-30T03:06:16;10.43;;;9.43;;
15624;SDS011;7912;51.376;6.126;2023-08-30T03:08:47;11.23;;;10.13;;
15624;SDS011;7912;51.376;6.126;2023-08-30T03:11:20;9.93;;;8.87;;
15624;SDS011;7912;51.376;6.126;2023-08-30T03:13:53;12.03;;;10.83;;
15624;SDS011;7912;51.376;6.126;2023-08-30T03:16:28;10.67;;;9.57;;
15624;SDS011;7912;51.376;6.126;2023-08-30T03:19:00;10.23;;;9.30;;
15624;SDS011;7912;51.376;6.126;2023-08-30T03:21:47;11.13;;;10.03;;
15624;SDS011;7912;51.376;6.126;2023-08-30T03:24:33;10.80;;;9.77;;
15624;SDS011;7912;51.376;6.126;2023-08-30T03:27:05;12.83;;;11.60;;
15624;SDS011;7912;51.376;6.126;2023-08-30T03:29:39;12.77;;;11.53;;
15624;SDS011;7912;51.376;6.126;2023-08-30T03:32:10;12.67;;;11.47;;
15624;SDS011;7912;51.376;6.126;2023-08-30T03:34:49;11.53;;;10.43;;
15624;SDS011;7912;51.376;6.126;2023-08-30T03:37:21;12.50;;;11.40;;
15624;SDS011;7912;51.376;6.126;2023-08-30T03:39:58;10.90;;;9.80;;
15624;SDS011;7912;51.376;6.126;2023-08-30T03:42:28;12.47;;;11.27;;
15624;SDS011;7912;51.376;6.126;2023-08-30T03:44:56;13.53;;;12.13;;
15624;SDS011;7912;51.376;6.126;2023-08-30T03:47:31;13.60;;;12.27;;
15624;SDS011;7912;51.376;6.126;2023-08-30T03:50:05;12.40;;;11.23;;
15624;SDS011;7912;51.376;6.126;2023-08-30T03:52:41;14.27;;;12.77;;
15624;SDS011;7912;51.376;6.126;2023-08-30T03:55:14;13.43;;;12.17;;
15624;SDS011;7912;51.376;6.126;2023-08-30T03:57:44;14.70;;;13.23;;
15624;SDS011;7912;51.376;6.126;2023-08-30T04:00:20;12.43;;;11.20;;
15624;SDS011;7912;51.376;6.126;2023-08-30T04:02:58;11.80;;;10.67;;
15624;SDS011;7912;51.376;6.126;2023-08-30T04:05:26;15.67;;;13.43;;
15624;SDS011;7912;51.376;6.126;2023-08-30T04:08:05;14.53;;;13.00;;
15624;SDS011;7912;51.376;6.126;2023-08-30T04:10:37;14.07;;;12.77;;
15624;SDS011;7912;51.376;6.126;2023-08-30T04:13:10;14.13;;;12.83;;
15624;SDS011;7912;51.376;6.126;2023-08-30T04:15:53;14.73;;;13.33;;
15624;SDS011;7912;51.376;6.126;2023-08-30T04:18:27;16.07;;;13.10;;
15624;SDS011;7912;51.376;6.126;2023-08-30T04:20:56;14.40;;;13.00;;
15624;SDS011;7912;51.376;6.126;2023-08-30T04:23:31;14.00;;;12.67;;
15624;SDS011;7912;51.376;6.126;2023-08-30T04:26:03;14.10;;;12.80;;
15624;SDS011;7912;51.376;6.126;2023-08-30T04:28:33;15.20;;;13.70;;
15624;SDS011;7912;51.376;6.126;2023-08-30T04:31:04;15.77;;;14.07;;
15624;SDS011;7912;51.376;6.126;2023-08-30T04:33:41;14.80;;;13.40;;
15624;SDS011;7912;51.376;6.126;2023-08-30T04:36:09;13.63;;;12.23;;
15624;SDS011;7912;51.376;6.126;2023-08-30T04:38:38;16.40;;;13.70;;
15624;SDS011;7912;51.376;6.126;2023-08-30T04:41:22;16.07;;;14.57;;
15624;SDS011;7912;51.376;6.126;2023-08-30T04:44:01;14.70;;;12.93;;
15624;SDS011;7912;51.376;6.126;2023-08-30T04:46:32;14.93;;;13.40;;
15624;SDS011;7912;51.376;6.126;2023-08-30T04:49:07;14.87;;;13.47;;
15624;SDS011;7912;51.376;6.126;2023-08-30T04:51:36;16.20;;;14.20;;
15624;SDS011;7912;51.376;6.126;2023-08-30T04:54:03;14.60;;;13.07;;
15624;SDS011;7912;51.376;6.126;2023-08-30T04:56:32;16.40;;;14.80;;
15624;SDS011;7912;51.376;6.126;2023-08-30T04:59:00;16.77;;;15.03;;
15624;SDS011;7912;51.376;6.126;2023-08-30T05:01:30;16.40;;;14.70;;
15624;SDS011;7912;51.376;6.126;2023-08-30T05:03:59;16.27;;;14.53;;
15624;SDS011;7912;51.376;6.126;2023-08-30T05:13:16;18.90;;;14.53;;
15624;SDS011;7912;51.376;6.126;2023-08-30T05:15:45;16.77;;;15.17;;
15624;SDS011;7912;51.376;6.126;2023-08-30T05:18:14;16.17;;;14.53;;
15624;SDS011;7912;51.376;6.126;2023-08-30T05:20:43;15.27;;;13.67;;
15624;SDS011;7912;51.376;6.126;2023-08-30T05:23:20;15.20;;;13.63;;
15624;SDS011;7912;51.376;6.126;2023-08-30T05:25:50;15.20;;;13.77;;
15624;SDS011;7912;51.376;6.126;2023-08-30T05:28:26;14.43;;;13.07;;
15624;SDS011;7912;51.376;6.126;2023-08-30T05:30:54;16.57;;;14.87;;
15624;SDS011;7912;51.376;6.126;2023-08-30T05:33:21;16.60;;;14.90;;
15624;SDS011;7912;51.376;6.126;2023-08-30T05:35:50;18.30;;;14.87;;
15624;SDS011;7912;51.376;6.126;2023-08-30T05:38:20;15.40;;;13.87;;
15624;SDS011;7912;51.376;6.126;2023-08-30T05:40:47;16.37;;;14.73;;
15624;SDS011;7912;51.376;6.126;2023-08-30T05:43:19;15.97;;;14.37;;
15624;SDS011;7912;51.376;6.126;2023-08-30T05:45:55;16.50;;;14.83;;
15624;SDS011;7912;51.376;6.126;2023-08-30T05:48:37;16.93;;;15.33;;
15624;SDS011;7912;51.376;6.126;2023-08-30T05:51:40;15.63;;;14.07;;
15624;SDS011;7912;51.376;6.126;2023-08-30T05:54:24;16.57;;;15.03;;
15624;SDS011;7912;51.376;6.126;2023-08-30T05:57:01;16.37;;;14.67;;
15624;SDS011;7912;51.376;6.126;2023-08-30T05:59:29;16.47;;;14.87;;
15624;SDS011;7912;51.376;6.126;2023-08-30T06:02:13;15.57;;;14.07;;
15624;SDS011;7912;51.376;6.126;2023-08-30T06:04:58;16.17;;;14.47;;
15624;SDS011;7912;51.376;6.126;2023-08-30T06:07:29;16.77;;;14.97;;
15624;SDS011;7912;51.376;6.126;2023-08-30T06:10:06;15.63;;;14.07;;
15624;SDS011;7912;51.376;6.126;2023-08-30T06:12:44;15.27;;;13.83;;
15624;SDS011;7912;51.376;6.126;2023-08-30T06:15:15;14.93;;;13.40;;
15624;SDS011;7912;51.376;6.126;2023-08-30T06:17:58;15.83;;;14.33;;
15624;SDS011;7912;51.376;6.126;2023-08-30T06:20:35;15.90;;;14.33;;
15624;SDS011;7912;51.376;6.126;2023-08-30T06:23:11;15.50;;;14.03;;
15624;SDS011;7912;51.376;6.126;2023-08-30T06:25:55;14.80;;;13.47;;
15624;SDS011;7912;51.376;6.126;2023-08-30T06:28:34;15.20;;;13.63;;
15624;SDS011;7912;51.376;6.126;2023-08-30T06:31:08;14.43;;;13.13;;
15624;SDS011;7912;51.376;6.126;2023-08-30T06:33:35;14.27;;;12.97;;
15624;SDS011;7912;51.376;6.126;2023-08-30T06:36:05;14.67;;;13.17;;
15624;SDS011;7912;51.376;6.126;2023-08-30T06:38:41;14.37;;;12.97;;
15624;SDS011;7912;51.376;6.126;2023-08-30T06:41:12;14.43;;;13.03;;
15624;SDS011;7912;51.376;6.126;2023-08-30T06:43:40;14.00;;;12.60;;
15624;SDS011;7912;51.376;6.126;2023-08-30T06:46:07;13.80;;;12.50;;
15624;SDS011;7912;51.376;6.126;2023-08-30T06:48:37;13.10;;;11.80;;
15624;SDS011;7912;51.376;6.126;2023-08-30T06:51:10;13.33;;;11.93;;
15624;SDS011;7912;51.376;6.126;2023-08-30T06:53:38;13.43;;;12.13;;
15624;SDS011;7912;51.376;6.126;2023-08-30T06:56:06;14.53;;;13.03;;
15624;SDS011;7912;51.376;6.126;2023-08-30T07:01:21;13.20;;;11.83;;
15624;SDS011;7912;51.376;6.126;2023-08-30T07:03:49;14.60;;;12.60;;
15624;SDS011;7912;51.376;6.126;2023-08-30T07:06:17;13.00;;;11.47;;
15624;SDS011;7912;51.376;6.126;2023-08-30T07:08:45;11.43;;;10.17;;
15624;SDS011;7912;51.376;6.126;2023-08-30T07:11:13;12.10;;;10.77;;
15624;SDS011;7912;51.376;6.126;2023-08-30T07:13:58;11.77;;;10.67;;
15624;SDS011;7912;51.376;6.126;2023-08-30T07:16:31;12.00;;;10.80;;
15624;SDS011;7912;51.376;6.126;2023-08-30T07:19:05;12.10;;;11.03;;
15624;SDS011;7912;51.376;6.126;2023-08-30T07:21:36;11.33;;;10.30;;
15624;SDS011;7912;51.376;6.126;2023-08-30T07:24:08;10.83;;;9.83;;
15624;SDS011;7912;51.376;6.126;2023-08-30T07:26:36;10.90;;;9.80;;
15624;SDS011;7912;51.376;6.126;2023-08-30T07:29:09;10.73;;;9.60;;
15624;SDS011;7912;51.376;6.126;2023-08-30T07:31:44;9.97;;;8.97;;
15624;SDS011;7912;51.376;6.126;2023-08-30T07:34:18;10.60;;;9.50;;
15624;SDS011;7912;51.376;6.126;2023-08-30T07:36:49;10.20;;;8.57;;
15624;SDS011;7912;51.376;6.126;2023-08-30T07:39:17;11.47;;;9.30;;
15624;SDS011;7912;51.376;6.126;2023-08-30T07:41:47;9.93;;;8.93;;
15624;SDS011;7912;51.376;6.126;2023-08-30T07:44:22;9.60;;;8.80;;
15624;SDS011;7912;51.376;6.126;2023-08-30T07:46:50;8.07;;;7.37;;
15624;SDS011;7912;51.376;6.126;2023-08-30T07:49:24;8.67;;;7.77;;
15624;SDS011;7912;51.376;6.126;2023-08-30T07:51:51;11.10;;;8.80;;
15624;SDS011;7912;51.376;6.126;2023-08-30T07:54:19;8.40;;;7.57;;
15624;SDS011;7912;51.376;6.126;2023-08-30T07:56:47;8.60;;;7.70;;
15624;SDS011;7912;51.376;6.126;2023-08-30T07:59:17;9.13;;;8.23;;
15624;SDS011;7912;51.376;6.126;2023-08-30T08:01:45;8.63;;;7.40;;
15624;SDS011;7912;51.376;6.126;2023-08-30T08:04:13;7.53;;;6.77;;
15624;SDS011;7912;51.376;6.126;2023-08-30T08:06:40;7.27;;;6.53;;
15624;SDS011;7912;51.376;6.126;2023-08-30T08:12:01;7.67;;;6.90;;
15624;SDS011;7912;51.376;6.126;2023-08-30T08:14:32;8.83;;;7.93;;
15624;SDS011;7912;51.376;6.126;2023-08-30T08:17:08;7.23;;;6.53;;
15624;SDS011;7912;51.376;6.126;2023-08-30T08:19:36;8.87;;;7.97;;
15624;SDS011;7912;51.376;6.126;2023-08-30T08:22:06;8.87;;;7.37;;
15624;SDS011;7912;51.376;6.126;2023-08-30T08:24:34;7.83;;;7.03;;
15624;SDS011;7912;51.376;6.126;2023-08-30T08:27:02;6.77;;;6.17;;
15624;SDS011;7912;51.376;6.126;2023-08-30T08:29:32;7.20;;;6.50;;
15624;SDS011;7912;51.376;6.126;2023-08-30T08:31:59;7.40;;;6.70;;
15624;SDS011;7912;51.376;6.126;2023-08-30T08:34:26;8.03;;;7.17;;
15624;SDS011;7912;51.376;6.126;2023-08-30T08:36:54;7.87;;;7.07;;
15624;SDS011;7912;51.376;6.126;2023-08-30T08:39:21;8.37;;;7.33;;
15624;SDS011;7912;51.376;6.126;2023-08-30T08:41:49;6.83;;;6.23;;
15624;SDS011;7912;51.376;6.126;2023-08-30T08:44:22;6.73;;;6.13;;
15624;SDS011;7912;51.376;6.126;2023-08-30T08:46:57;6.30;;;5.70;;
15624;SDS011;7912;51.376;6.126;2023-08-30T08:49:29;6.60;;;6.00;;
15624;SDS011;7912;51.376;6.126;2023-08-30T08:51:57;6.93;;;6.33;;
15624;SDS011;7912;51.376;6.126;2023-08-30T08:54:31;6.57;;;5.90;;
15624;SDS011;7912;51.376;6.126;2023-08-30T08:56:59;7.73;;;6.03;;
15624;SDS011;7912;51.376;6.126;2023-08-30T08:59:27;5.73;;;5.23;;
15624;SDS011;7912;51.376;6.126;2023-08-30T09:02:01;6.50;;;5.90;;
15624;SDS011;7912;51.376;6.126;2023-08-30T09:04:32;6.63;;;5.53;;
15624;SDS011;7912;51.376;6.126;2023-08-30T09:07:18;6.80;;;6.00;;
15624;SDS011;7912;51.376;6.126;2023-08-30T09:09:55;6.90;;;6.20;;
15624;SDS011;7912;51.376;6.126;2023-08-30T09:12:22;8.07;;;6.20;;
15624;SDS011;7912;51.376;6.126;2023-08-30T09:18:01;6.37;;;5.73;;
15624;SDS011;7912;51.376;6.126;2023-08-30T09:20:29;6.93;;;6.10;;
15624;SDS011;7912;51.376;6.126;2023-08-30T09:22:57;7.00;;;6.27;;
15624;SDS011;7912;51.376;6.126;2023-08-30T09:25:25;6.47;;;5.77;;
15624;SDS011;7912;51.376;6.126;2023-08-30T09:27:57;7.30;;;5.77;;
15624;SDS011;7912;51.376;6.126;2023-08-30T09:30:26;6.10;;;4.83;;
15624;SDS011;7912;51.376;6.126;2023-08-30T09:33:00;5.37;;;4.80;;
15624;SDS011;7912;51.376;6.126;2023-08-30T09:35:32;5.73;;;4.93;;
15624;SDS011;7912;51.376;6.126;2023-08-30T09:38:18;5.50;;;4.57;;
15624;SDS011;7912;51.376;6.126;2023-08-30T09:40:46;4.70;;;4.30;;
15624;SDS011;7912;51.376;6.126;2023-08-30T09:43:14;5.17;;;4.70;;
15624;SDS011;7912;51.376;6.126;2023-08-30T09:45:50;8.13;;;4.70;;
15624;SDS011;7912;51.376;6.126;2023-08-30T09:48:21;5.00;;;4.17;;
15624;SDS011;7912;51.376;6.126;2023-08-30T09:50:54;5.47;;;4.90;;
15624;SDS011;7912;51.376;6.126;2023-08-30T09:53:28;6.40;;;4.07;;
15624;SDS011;7912;51.376;6.126;2023-08-30T09:56:14;4.83;;;3.90;;
15624;SDS011;7912;51.376;6.126;2023-08-30T09:58:44;5.37;;;4.07;;
15624;SDS011;7912;51.376;6.126;2023-08-30T10:01:12;4.87;;;4.20;;
15624;SDS011;7912;51.376;6.126;2023-08-30T10:03:40;4.83;;;4.00;;
15624;SDS011;7912;51.376;6.126;2023-08-30T10:06:09;5.53;;;4.00;;
15624;SDS011;7912;51.376;6.126;2023-08-30T10:08:37;4.70;;;3.50;;
15624;SDS011;7912;51.376;6.126;2023-08-30T10:11:12;4.00;;;3.70;;
15624;SDS011;7912;51.376;6.126;2023-08-30T10:13:42;4.27;;;3.87;;
15624;SDS011;7912;51.376;6.126;2023-08-30T10:16:23;4.13;;;3.73;;
15624;SDS011;7912;51.376;6.126;2023-08-30T10:18:56;4.53;;;4.13;;
15624;SDS011;7912;51.376;6.126;2023-08-30T10:21:36;4.40;;;4.00;;
15624;SDS011;7912;51.376;6.126;2023-08-30T10:24:05;5.43;;;4.57;;
15624;SDS011;7912;51.376;6.126;2023-08-30T10:26:56;4.70;;;4.20;;
15624;SDS011;7912;51.376;6.126;2023-08-30T10:29:28;4.03;;;3.40;;
15624;SDS011;7912;51.376;6.126;2023-08-30T10:32:04;4.37;;;3.97;;
15624;SDS011;7912;51.376;6.126;2023-08-30T10:34:35;4.93;;;4.10;;
15624;SDS011;7912;51.376;6.126;2023-08-30T10:37:07;4.97;;;4.57;;
15624;SDS011;7912;51.376;6.126;2023-08-30T10:39:38;4.53;;;4.13;;
15624;SDS011;7912;51.376;6.126;2023-08-30T10:42:11;4.50;;;4.10;;
15624;SDS011;7912;51.376;6.126;2023-08-30T10:44:48;4.47;;;4.07;;
15624;SDS011;7912;51.376;6.126;2023-08-30T10:47:47;4.87;;;4.20;;
15624;SDS011;7912;51.376;6.126;2023-08-30T10:50:30;4.80;;;4.40;;
15624;SDS011;7912;51.376;6.126;2023-08-30T10:52:59;4.37;;;3.97;;
15624;SDS011;7912;51.376;6.126;2023-08-30T10:55:27;5.70;;;5.13;;
15624;SDS011;7912;51.376;6.126;2023-08-30T10:58:02;5.67;;;5.03;;
15624;SDS011;7912;51.376;6.126;2023-08-30T11:00:33;5.20;;;4.70;;
15624;SDS011;7912;51.376;6.126;2023-08-30T11:03:02;5.27;;;4.77;;
15624;SDS011;7912;51.376;6.126;2023-08-30T11:05:31;4.73;;;4.33;;
15624;SDS011;7912;51.376;6.126;2023-08-30T11:07:58;5.60;;;4.30;;
15624;SDS011;7912;51.376;6.126;2023-08-30T11:10:26;4.50;;;4.00;;
15624;SDS011;7912;51.376;6.126;2023-08-30T11:12:55;4.67;;;4.20;;
15624;SDS011;7912;51.376;6.126;2023-08-30T11:15:23;4.23;;;3.90;;
15624;SDS011;7912;51.376;6.126;2023-08-30T11:18:01;4.77;;;4.30;;
15624;SDS011;7912;51.376;6.126;2023-08-30T11:20:30;4.50;;;4.10;;
15624;SDS011;7912;51.376;6.126;2023-08-30T11:22:58;4.37;;;4.00;;
15624;SDS011;7912;51.376;6.126;2023-08-30T11:25:25;4.10;;;3.80;;
15624;SDS011;7912;51.376;6.126;2023-08-30T11:28:01;3.60;;;3.30;;
15624;SDS011;7912;51.376;6.126;2023-08-30T11:30:30;3.90;;;3.60;;
15624;SDS011;7912;51.376;6.126;2023-08-30T11:32:58;3.70;;;3.40;;
15624;SDS011;7912;51.376;6.126;2023-08-30T11:35:26;3.53;;;3.23;;
15624;SDS011;7912;51.376;6.126;2023-08-30T11:37:53;3.50;;;3.20;;
15624;SDS011;7912;51.376;6.126;2023-08-30T11:40:21;3.53;;;3.27;;
15624;SDS011;7912;51.376;6.126;2023-08-30T11:42:50;4.17;;;3.67;;
15624;SDS011;7912;51.376;6.126;2023-08-30T11:45:18;4.20;;;3.80;;
15624;SDS011;7912;51.376;6.126;2023-08-30T11:47:45;4.27;;;3.67;;
15624;SDS011;7912;51.376;6.126;2023-08-30T11:50:15;3.87;;;3.57;;
15624;SDS011;7912;51.376;6.126;2023-08-30T11:52:43;4.13;;;3.73;;
15624;SDS011;7912;51.376;6.126;2023-08-30T11:55:11;3.63;;;3.33;;
15624;SDS011;7912;51.376;6.126;2023-08-30T11:57:39;4.30;;;3.90;;
15624;SDS011;7912;51.376;6.126;2023-08-30T12:00:12;3.73;;;3.43;;
15624;SDS011;7912;51.376;6.126;2023-08-30T12:02:40;3.90;;;3.60;;
15624;SDS011;7912;51.376;6.126;2023-08-30T12:05:14;3.67;;;3.37;;
15624;SDS011;7912;51.376;6.126;2023-08-30T12:07:45;4.13;;;3.57;;
15624;SDS011;7912;51.376;6.126;2023-08-30T12:10:13;3.90;;;3.60;;
15624;SDS011;7912;51.376;6.126;2023-08-30T12:12:47;3.90;;;3.60;;
15624;SDS011;7912;51.376;6.126;2023-08-30T12:15:16;4.30;;;3.90;;
15624;SDS011;7912;51.376;6.126;2023-08-30T12:17:43;3.70;;;3.40;;
15624;SDS011;7912;51.376;6.126;2023-08-30T12:20:15;3.97;;;3.60;;
15624;SDS011;7912;51.376;6.126;2023-08-30T12:22:52;4.40;;;4.10;;
15624;SDS011;7912;51.376;6.126;2023-08-30T12:25:22;3.70;;;3.40;;
15624;SDS011;7912;51.376;6.126;2023-08-30T12:27:51;4.40;;;3.97;;
15624;SDS011;7912;51.376;6.126;2023-08-30T12:30:19;5.20;;;4.70;;
15624;SDS011;7912;51.376;6.126;2023-08-30T12:32:49;4.07;;;3.67;;
15624;SDS011;7912;51.376;6.126;2023-08-30T12:35:26;4.13;;;3.80;;
15624;SDS011;7912;51.376;6.126;2023-08-30T12:37:54;3.80;;;3.40;;
15624;SDS011;7912;51.376;6.126;2023-08-30T12:40:22;4.10;;;3.70;;
15624;SDS011;7912;51.376;6.126;2023-08-30T12:42:50;3.57;;;3.27;;
15624;SDS011;7912;51.376;6.126;2023-08-30T12:45:17;4.40;;;3.73;;
15624;SDS011;7912;51.376;6.126;2023-08-30T12:47:44;3.53;;;3.23;;
15624;SDS011;7912;51.376;6.126;2023-08-30T12:50:12;3.93;;;3.63;;
15624;SDS011;7912;51.376;6.126;2023-08-30T12:52:39;4.87;;;3.90;;
15624;SDS011;7912;51.376;6.126;2023-08-30T12:55:06;4.07;;;3.67;;
15624;SDS011;7912;51.376;6.126;2023-08-30T12:57:37;3.93;;;3.63;;
15624;SDS011;7912;51.376;6.126;2023-08-30T13:00:04;3.83;;;3.50;;
15624;SDS011;7912;51.376;6.126;2023-08-30T13:02:32;4.37;;;3.97;;
15624;SDS011;7912;51.376;6.126;2023-08-30T13:05:00;3.90;;;3.60;;
15624;SDS011;7912;51.376;6.126;2023-08-30T13:07:27;4.07;;;3.67;;
15624;SDS011;7912;51.376;6.126;2023-08-30T13:09:55;4.63;;;4.23;;
15624;SDS011;7912;51.376;6.126;2023-08-30T13:12:22;3.97;;;3.67;;
15624;SDS011;7912;51.376;6.126;2023-08-30T13:14:50;4.97;;;4.27;;
15624;SDS011;7912;51.376;6.126;2023-08-30T13:17:18;4.73;;;4.27;;
15624;SDS011;7912;51.376;6.126;2023-08-30T13:19:45;4.43;;;4.13;;
15624;SDS011;7912;51.376;6.126;2023-08-30T13:22:13;4.93;;;4.43;;
15624;SDS011;7912;51.376;6.126;2023-08-30T13:24:40;4.40;;;4.10;;
15624;SDS011;7912;51.376;6.126;2023-08-30T13:27:08;4.93;;;4.43;;
15624;SDS011;7912;51.376;6.126;2023-08-30T13:29:36;4.67;;;4.27;;
15624;SDS011;7912;51.376;6.126;2023-08-30T13:32:03;5.07;;;4.67;;
15624;SDS011;7912;51.376;6.126;2023-08-30T13:34:31;5.17;;;4.77;;
15624;SDS011;7912;51.376;6.126;2023-08-30T13:36:58;5.33;;;4.40;;
15624;SDS011;7912;51.376;6.126;2023-08-30T13:39:29;4.73;;;4.33;;
15624;SDS011;7912;51.376;6.126;2023-08-30T13:41:57;5.57;;;5.00;;
15624;SDS011;7912;51.376;6.126;2023-08-30T13:44:25;5.03;;;4.63;;
15624;SDS011;7912;51.376;6.126;2023-08-30T13:46:52;5.00;;;4.60;;
15624;SDS011;7912;51.376;6.126;2023-08-30T13:49:19;5.03;;;4.53;;
15624;SDS011;7912;51.376;6.126;2023-08-30T13:51:49;4.73;;;4.33;;
15624;SDS011;7912;51.376;6.126;2023-08-30T13:54:20;5.10;;;4.70;;
15624;SDS011;7912;51.376;6.126;2023-08-30T13:56:48;4.53;;;4.13;;
15624;SDS011;7912;51.376;6.126;2023-08-30T13:59:15;4.60;;;4.20;;
15624;SDS011;7912;51.376;6.126;2023-08-30T14:01:43;4.93;;;4.53;;
15624;SDS011;7912;51.376;6.126;2023-08-30T14:04:11;4.40;;;4.00;;
15624;SDS011;7912;51.376;6.126;2023-08-30T14:06:38;4.63;;;4.23;;
15624;SDS011;7912;51.376;6.126;2023-08-30T14:09:05;4.50;;;4.10;;
15624;SDS011;7912;51.376;6.126;2023-08-30T14:11:34;4.83;;;4.13;;
15624;SDS011;7912;51.376;6.126;2023-08-30T14:14:04;4.83;;;4.40;;
15624;SDS011;7912;51.376;6.126;2023-08-30T14:16:31;4.03;;;3.60;;
15624;SDS011;7912;51.376;6.126;2023-08-30T14:18:59;5.07;;;4.67;;
15624;SDS011;7912;51.376;6.126;2023-08-30T14:21:26;5.60;;;5.07;;
15624;SDS011;7912;51.376;6.126;2023-08-30T14:23:54;5.90;;;4.73;;
15624;SDS011;7912;51.376;6.126;2023-08-30T14:26:21;5.57;;;4.77;;
15624;SDS011;7912;51.376;6.126;2023-08-30T14:28:48;5.33;;;4.83;;
15624;SDS011;7912;51.376;6.126;2023-08-30T14:31:16;5.17;;;4.33;;
15624;SDS011;7912;51.376;6.126;2023-08-30T14:33:46;4.37;;;4.07;;
15624;SDS011;7912;51.376;6.126;2023-08-30T14:36:13;5.47;;;4.67;;
15624;SDS011;7912;51.376;6.126;2023-08-30T14:38:43;4.27;;;3.87;;
15624;SDS011;7912;51.376;6.126;2023-08-30T14:41:10;4.57;;;4.17;;
15624;SDS011;7912;51.376;6.126;2023-08-30T14:43:39;4.50;;;4.10;;
15624;SDS011;7912;51.376;6.126;2023-08-30T14:46:06;4.27;;;3.87;;
15624;SDS011;7912;51.376;6.126;2023-08-30T14:48:39;5.03;;;4.60;;
15624;SDS011;7912;51.376;6.126;2023-08-30T14:51:06;5.30;;;4.30;;
15624;SDS011;7912;51.376;6.126;2023-08-30T14:53:34;4.67;;;4.27;;
15624;SDS011;7912;51.376;6.126;2023-08-30T14:56:05;4.50;;;4.03;;
15624;SDS011;7912;51.376;6.126;2023-08-30T14:58:34;4.80;;;4.03;;
15624;SDS011;7912;51.376;6.126;2023-08-30T15:01:02;4.67;;;4.20;;
15624;SDS011;7912;51.376;6.126;2023-08-30T15:03:34;4.37;;;3.83;;
15624;SDS011;7912;51.376;6.126;2023-08-30T15:06:01;4.77;;;4.37;;
15624;SDS011;7912;51.376;6.126;2023-08-30T15:08:29;5.87;;;4.20;;
15624;SDS011;7912;51.376;6.126;2023-08-30T15:10:59;5.03;;;3.63;;
15624;SDS011;7912;51.376;6.126;2023-08-30T15:13:27;4.47;;;4.10;;
15624;SDS011;7912;51.376;6.126;2023-08-30T15:15:54;4.80;;;4.30;;
15624;SDS011;7912;51.376;6.126;2023-08-30T15:18:22;4.90;;;4.40;;
15624;SDS011;7912;51.376;6.126;2023-08-30T15:20:52;4.37;;;3.83;;
15624;SDS011;7912;51.376;6.126;2023-08-30T15:26:10;5.93;;;2.60;;
15624;SDS011;7912;51.376;6.126;2023-08-30T15:28:45;4.30;;;2.00;;
15624;SDS011;7912;51.376;6.126;2023-08-30T15:31:16;3.30;;;1.77;;
15624;SDS011;7912;51.376;6.126;2023-08-30T15:33:49;4.93;;;2.10;;
15624;SDS011;7912;51.376;6.126;2023-08-30T15:36:18;3.60;;;1.90;;
15624;SDS011;7912;51.376;6.126;2023-08-30T15:38:45;4.30;;;1.90;;
15624;SDS011;7912;51.376;6.126;2023-08-30T15:41:13;2.23;;;1.80;;
15624;SDS011;7912;51.376;6.126;2023-08-30T15:43:41;3.97;;;2.03;;
15624;SDS011;7912;51.376;6.126;2023-08-30T15:46:09;2.70;;;1.80;;